Time;durP1;ratioP1;P1;durP2;ratioP2;P2;SDS_P1;SDS_P2;PMS_P1;PMS_P2;Temp;Humidity;BMP_temperature;BMP_pressure;BME280_temperature;BME280_humidity;BME280_pressure;Samples;Min_cycle;Max_cycle;Signal;HPM_P1;HPM_P2
2022/05/03 00:01:53;;;;;;;0.60;0.60;;;10.80;43.20;;;;;;6347475;28;20644;-66
2022/05/03 00:05:04;;;;;;;0.55;0.55;;;10.80;43.20;;;;;;6346731;28;20207;-67
2022/05/03 00:08:24;;;;;;;0.60;0.60;;;10.60;42.80;;;;;;6346928;28;20241;-65
2022/05/03 00:11:34;;;;;;;0.65;0.65;;;10.50;43.20;;;;;;6347791;28;20663;-66
2022/05/03 00:14:46;;;;;;;0.50;0.50;;;10.50;43.60;;;;;;6346633;28;20237;-66
2022/05/03 00:17:53;;;;;;;0.70;0.70;;;10.40;43.60;;;;;;6346033;28;20279;-66
2022/05/03 00:20:58;;;;;;;0.68;0.68;;;10.30;43.80;;;;;;6346726;28;20212;-66
2022/05/03 00:24:05;;;;;;;1.17;0.65;;;10.30;43.70;;;;;;6346714;28;20248;-68
2022/05/03 00:27:12;;;;;;;0.70;0.70;;;10.30;43.90;;;;;;6345956;28;20217;-65
2022/05/03 00:30:18;;;;;;;0.60;0.60;;;10.10;44.10;;;;;;6328562;28;20567;-66
2022/05/03 00:33:24;;;;;;;0.60;0.60;;;9.90;44.60;;;;;;6346465;28;20278;-66
2022/05/03 00:36:32;;;;;;;1.00;0.65;;;9.90;44.90;;;;;;6327923;28;20539;-65
2022/05/03 00:39:37;;;;;;;0.70;0.70;;;9.90;45.20;;;;;;6346478;28;20637;-65
2022/05/03 00:42:49;;;;;;;1.45;0.70;;;9.90;45.70;;;;;;6346584;28;20229;-66
2022/05/03 00:46:00;;;;;;;0.50;0.50;;;9.80;45.90;;;;;;6346292;28;20202;-66
2022/05/03 00:49:22;;;;;;;2.53;0.70;;;9.90;45.90;;;;;;6345870;28;20354;-66
2022/05/03 00:52:35;;;;;;;0.70;0.70;;;9.80;46.10;;;;;;6346037;28;20267;-66
2022/05/03 00:56:18;;;;;;;0.63;0.63;;;9.80;46.10;;;;;;6346375;28;20213;-66
2022/05/03 00:59:45;;;;;;;1.52;0.70;;;9.70;46.40;;;;;;6346520;28;20238;-65
2022/05/03 01:03:11;;;;;;;1.55;0.70;;;9.50;46.40;;;;;;6347015;28;20225;-66
2022/05/03 01:06:22;;;;;;;0.60;0.60;;;9.50;46.70;;;;;;6347628;28;20213;-65
2022/05/03 01:09:38;;;;;;;0.60;0.60;;;9.40;46.80;;;;;;6347417;28;20606;-66
2022/05/03 01:12:55;;;;;;;0.63;0.63;;;9.40;47.10;;;;;;6311074;28;20599;-66
2022/05/03 01:16:06;;;;;;;0.70;0.70;;;9.30;47.70;;;;;;6321268;28;20199;-65
2022/05/03 01:19:33;;;;;;;0.52;0.52;;;9.20;47.40;;;;;;6320415;28;20234;-65
2022/05/03 01:23:39;;;;;;;0.80;0.80;;;9.20;47.90;;;;;;6320113;28;20226;-66
2022/05/03 01:27:42;;;;;;;0.60;0.60;;;9.30;47.80;;;;;;6321536;28;20640;-66
2022/05/03 01:30:49;;;;;;;0.80;0.80;;;9.30;47.70;;;;;;6320140;28;20673;-65
2022/05/03 01:34:01;;;;;;;0.70;0.70;;;9.10;47.70;;;;;;6320123;28;20261;-65
2022/05/03 01:37:43;;;;;;;0.80;0.80;;;9.00;47.90;;;;;;6320609;28;20668;-67
2022/05/03 01:41:14;;;;;;;0.95;0.95;;;9.00;48.20;;;;;;6320505;28;20203;-65
2022/05/03 01:44:37;;;;;;;1.33;1.33;;;8.90;48.50;;;;;;6320406;28;20256;-65
2022/05/03 01:47:53;;;;;;;2.10;1.30;;;8.90;48.70;;;;;;6320467;28;20243;-65
2022/05/03 01:51:06;;;;;;;2.40;1.10;;;8.70;48.70;;;;;;6320645;28;20226;-65
2022/05/03 01:54:37;;;;;;;1.02;1.00;;;8.50;49.00;;;;;;6302595;28;20586;-66
2022/05/03 01:57:56;;;;;;;0.70;0.70;;;8.40;49.40;;;;;;6319638;28;20253;-66
2022/05/03 02:01:05;;;;;;;0.60;0.60;;;8.30;49.80;;;;;;6302577;28;20614;-65
2022/05/03 02:04:39;;;;;;;0.70;0.70;;;8.30;50.10;;;;;;6320424;28;20242;-66
2022/05/03 02:07:54;;;;;;;0.70;0.70;;;8.30;50.40;;;;;;6324705;28;20226;-66
2022/05/03 02:11:30;;;;;;;2.38;0.80;;;8.30;50.20;;;;;;6328572;28;20210;-66
2022/05/03 02:14:46;;;;;;;0.65;0.65;;;8.20;50.30;;;;;;6355960;28;20248;-65
2022/05/03 02:17:54;;;;;;;0.60;0.60;;;8.00;50.70;;;;;;6353095;28;20240;-65
2022/05/03 02:21:17;;;;;;;0.60;0.60;;;7.90;50.80;;;;;;6356999;28;20206;-65
2022/05/03 02:24:28;;;;;;;1.15;0.80;;;7.80;51.00;;;;;;6349024;28;20226;-65
2022/05/03 02:27:34;;;;;;;0.80;0.80;;;7.90;51.10;;;;;;6349244;28;20247;-66
2022/05/03 02:30:41;;;;;;;1.60;0.70;;;7.80;51.00;;;;;;6349889;28;20230;-65
2022/05/03 02:33:50;;;;;;;0.80;0.80;;;7.90;50.50;;;;;;6349181;28;20241;-66
2022/05/03 02:37:05;;;;;;;0.70;0.70;;;7.80;50.30;;;;;;6349564;28;20230;-65
2022/05/03 02:40:12;;;;;;;0.90;0.90;;;7.80;50.30;;;;;;6330425;28;20255;-65
2022/05/03 02:43:18;;;;;;;1.15;0.80;;;7.80;49.90;;;;;;6349112;28;20229;-65
2022/05/03 02:46:42;;;;;;;1.45;0.88;;;7.70;50.00;;;;;;6349209;28;20202;-65
2022/05/03 02:50:06;;;;;;;0.80;0.80;;;7.70;49.60;;;;;;6348458;28;20234;-65
2022/05/03 02:53:24;;;;;;;0.73;0.73;;;7.60;49.30;;;;;;6349071;28;20222;-66
2022/05/03 02:56:40;;;;;;;0.90;0.90;;;7.50;48.90;;;;;;6348935;28;20202;-65
2022/05/03 03:04:02;;;;;;;1.00;1.00;;;7.50;48.60;;;;;;6327799;28;20222;-65
2022/05/03 03:07:08;;;;;;;0.80;0.80;;;7.50;48.30;;;;;;6333106;28;20286;-66
2022/05/03 03:10:22;;;;;;;0.90;0.90;;;7.40;48.50;;;;;;6328252;28;20718;-66
2022/05/03 03:13:42;;;;;;;0.85;0.80;;;7.50;48.70;;;;;;6348222;28;20230;-65
2022/05/03 03:16:55;;;;;;;2.25;0.95;;;7.50;48.40;;;;;;6348790;28;20213;-65
2022/05/03 03:20:09;;;;;;;0.73;0.73;;;7.50;49.40;;;;;;6332272;28;20211;-67
2022/05/03 03:23:18;;;;;;;1.80;1.10;;;7.50;48.30;;;;;;6322703;28;20233;-65
2022/05/03 03:26:28;;;;;;;3.45;1.02;;;7.40;48.10;;;;;;6323081;28;20210;-65
2022/05/03 03:29:33;;;;;;;2.83;0.80;;;7.40;48.40;;;;;;6322519;28;20235;-65
2022/05/03 03:32:42;;;;;;;1.00;1.00;;;7.30;48.50;;;;;;6322524;28;20230;-65
2022/05/03 03:35:49;;;;;;;1.13;0.90;;;7.30;49.00;;;;;;6327231;28;20202;-65
2022/05/03 03:38:54;;;;;;;0.80;0.80;;;7.30;49.10;;;;;;6331177;28;20226;-65
2022/05/03 03:42:03;;;;;;;4.80;0.98;;;7.40;48.60;;;;;;6355233;28;20283;-65
2022/05/03 03:45:11;;;;;;;0.95;0.90;;;7.20;48.90;;;;;;6336473;28;20198;-65
2022/05/03 03:48:18;;;;;;;1.30;0.98;;;7.10;49.20;;;;;;6347830;28;20237;-65
2022/05/03 03:51:23;;;;;;;1.08;0.80;;;7.20;49.60;;;;;;6349116;28;20226;-65
2022/05/03 03:54:29;;;;;;;1.08;0.80;;;7.20;50.00;;;;;;6347432;28;20230;-66
2022/05/03 03:57:37;;;;;;;0.95;0.90;;;7.10;50.40;;;;;;6346754;28;20229;-65
2022/05/03 04:00:42;;;;;;;0.90;0.90;;;7.20;50.70;;;;;;6295465;28;20219;-65
2022/05/03 04:03:48;;;;;;;1.00;1.00;;;7.00;50.00;;;;;;6297069;28;20259;-66
2022/05/03 04:06:53;;;;;;;0.90;0.90;;;7.00;50.00;;;;;;6296991;28;20591;-67
2022/05/03 04:09:59;;;;;;;3.92;1.10;;;7.00;50.20;;;;;;6295881;28;20303;-64
2022/05/03 04:13:06;;;;;;;0.98;0.98;;;7.10;50.40;;;;;;6297084;28;20553;-65
2022/05/03 04:16:12;;;;;;;1.38;0.95;;;7.10;50.30;;;;;;6297276;28;20204;-65
2022/05/03 04:19:18;;;;;;;1.00;1.00;;;7.00;50.20;;;;;;6296797;28;20227;-65
2022/05/03 04:22:25;;;;;;;1.80;1.23;;;7.10;50.70;;;;;;6296600;28;20242;-65
2022/05/03 04:25:31;;;;;;;4.35;1.25;;;7.20;51.10;;;;;;6296910;28;20217;-64
2022/05/03 04:28:43;;;;;;;1.93;1.00;;;7.00;51.20;;;;;;6296093;28;20645;-65
2022/05/03 04:31:48;;;;;;;1.60;0.90;;;7.00;51.50;;;;;;6296926;28;20235;-65
2022/05/03 04:34:53;;;;;;;1.90;1.08;;;7.00;50.90;;;;;;6295939;28;20227;-65
2022/05/03 04:37:58;;;;;;;1.45;1.35;;;7.00;51.00;;;;;;6296372;28;20226;-65
2022/05/03 04:41:04;;;;;;;1.08;1.05;;;7.00;50.70;;;;;;6296678;28;20238;-66
2022/05/03 04:44:11;;;;;;;1.38;1.27;;;7.00;50.90;;;;;;6294552;28;20239;-65
2022/05/03 04:47:17;;;;;;;0.88;0.88;;;7.00;50.30;;;;;;6295899;28;20223;-66
2022/05/03 04:50:22;;;;;;;2.00;1.37;;;7.00;51.10;;;;;;6296786;28;20226;-66
2022/05/03 04:53:27;;;;;;;2.83;1.00;;;7.00;50.40;;;;;;6295974;28;20227;-64
2022/05/03 04:56:32;;;;;;;1.90;1.08;;;7.00;50.50;;;;;;6296884;28;20264;-65
2022/05/03 04:59:40;;;;;;;1.77;1.33;;;6.80;50.40;;;;;;6330075;28;20579;-64
2022/05/03 05:02:45;;;;;;;2.03;1.27;;;6.90;50.50;;;;;;6346424;28;20233;-64
2022/05/03 05:05:50;;;;;;;1.07;1.00;;;6.90;50.50;;;;;;6346482;28;20216;-65
2022/05/03 05:08:56;;;;;;;4.00;1.07;;;6.90;50.60;;;;;;6346242;28;20237;-65
2022/05/03 05:12:01;;;;;;;2.07;1.07;;;7.00;50.60;;;;;;6323470;28;20233;-65
2022/05/03 05:15:09;;;;;;;1.90;1.03;;;6.90;50.80;;;;;;6320837;28;20229;-66
2022/05/03 05:18:16;;;;;;;1.10;1.10;;;6.90;50.80;;;;;;6320635;28;20576;-66
2022/05/03 05:21:21;;;;;;;4.67;1.10;;;6.90;50.30;;;;;;6321173;28;20210;-65
2022/05/03 05:24:26;;;;;;;3.77;1.27;;;6.90;50.50;;;;;;6321652;28;20580;-65
2022/05/03 05:27:31;;;;;;;1.98;1.00;;;6.80;50.00;;;;;;6321010;28;20230;-65
2022/05/03 05:30:38;;;;;;;1.07;1.00;;;6.80;50.30;;;;;;6321747;28;20221;-66
2022/05/03 05:33:44;;;;;;;4.83;1.40;;;7.00;50.10;;;;;;6320658;28;20234;-65
2022/05/03 05:36:49;;;;;;;3.17;1.00;;;7.00;49.80;;;;;;6321462;28;20699;-66
2022/05/03 05:39:54;;;;;;;2.77;1.00;;;7.00;49.00;;;;;;6319823;28;20219;-64
2022/05/03 05:43:01;;;;;;;1.25;1.00;;;7.10;49.50;;;;;;6324753;28;20617;-65
2022/05/03 05:46:08;;;;;;;2.60;1.00;;;7.20;49.10;;;;;;6326071;28;20206;-65
2022/05/03 05:49:13;;;;;;;2.60;1.00;;;7.10;48.40;;;;;;6324742;28;20238;-65
2022/05/03 05:55:43;;;;;;;1.23;1.13;;;7.10;47.80;;;;;;6325955;28;20505;-65
2022/05/03 05:58:48;;;;;;;2.28;1.20;;;7.10;48.20;;;;;;6324475;28;20665;-65
2022/05/03 06:01:55;;;;;;;3.70;1.20;;;7.20;48.10;;;;;;6325101;28;20214;-66
2022/05/03 06:05:00;;;;;;;1.13;1.13;;;7.30;48.20;;;;;;6325063;28;20210;-65
2022/05/03 06:08:07;;;;;;;1.60;1.50;;;7.40;47.50;;;;;;6306383;28;20234;-65
2022/05/03 06:11:13;;;;;;;1.27;1.17;;;7.40;46.90;;;;;;6340993;28;20228;-65
2022/05/03 06:14:18;;;;;;;4.78;1.40;;;7.60;47.10;;;;;;6350132;28;20222;-65
2022/05/03 06:17:25;;;;;;;0.95;0.95;;;7.80;46.30;;;;;;6350205;28;20230;-66
2022/05/03 06:20:30;;;;;;;1.52;1.42;;;7.70;45.90;;;;;;6349958;28;20327;-66
2022/05/03 06:23:36;;;;;;;1.00;1.00;;;7.80;45.60;;;;;;6350063;28;20225;-65
2022/05/03 06:26:42;;;;;;;1.75;1.30;;;8.00;45.70;;;;;;6332224;28;20202;-66
2022/05/03 06:29:47;;;;;;;5.60;1.20;;;8.20;46.30;;;;;;6349070;28;20236;-65
2022/05/03 06:32:55;;;;;;;1.25;1.00;;;8.30;44.40;;;;;;6349825;28;20234;-67
2022/05/03 06:36:01;;;;;;;1.65;1.00;;;8.40;44.60;;;;;;6350552;28;20212;-66
2022/05/03 06:39:07;;;;;;;1.85;0.85;;;8.50;44.20;;;;;;6349483;28;20584;-66
2022/05/03 06:42:12;;;;;;;2.22;1.05;;;8.30;44.00;;;;;;6349123;28;20206;-66
2022/05/03 06:45:18;;;;;;;1.38;0.90;;;8.40;44.50;;;;;;6350052;28;20269;-65
2022/05/03 06:48:25;;;;;;;0.95;0.95;;;8.30;44.10;;;;;;6349733;28;20688;-66
2022/05/03 06:51:30;;;;;;;1.00;1.00;;;8.50;44.50;;;;;;6350019;28;20669;-65
2022/05/03 06:54:35;;;;;;;3.20;1.20;;;8.50;44.00;;;;;;6349658;28;20684;-65
2022/05/03 06:57:41;;;;;;;0.93;0.93;;;8.70;44.20;;;;;;6330414;28;20230;-67
2022/05/03 07:00:46;;;;;;;6.18;1.30;;;8.70;43.70;;;;;;6350367;28;20234;-65
2022/05/03 07:03:53;;;;;;;3.55;1.55;;;8.50;43.80;;;;;;6349478;28;20706;-66
2022/05/03 07:06:58;;;;;;;1.17;1.08;;;8.40;44.20;;;;;;6349077;28;20212;-67
2022/05/03 07:10:05;;;;;;;1.15;1.10;;;8.30;44.40;;;;;;6343639;28;20209;-66
2022/05/03 07:13:14;;;;;;;1.33;1.08;;;8.50;44.60;;;;;;6323842;28;20253;-65
2022/05/03 07:16:19;;;;;;;1.50;1.10;;;8.60;44.40;;;;;;6326944;28;20209;-64
2022/05/03 07:22:50;;;;;;;1.23;0.98;;;8.50;42.90;;;;;;6330590;28;20235;-64
2022/05/03 07:25:56;;;;;;;0.75;0.75;;;8.70;43.70;;;;;;6331490;28;20207;-65
2022/05/03 07:29:01;;;;;;;1.42;0.90;;;8.80;42.70;;;;;;6330346;28;20237;-65
2022/05/03 07:32:07;;;;;;;2.97;1.10;;;8.80;41.90;;;;;;6324892;28;20250;-64
2022/05/03 07:35:14;;;;;;;0.93;0.93;;;8.90;42.40;;;;;;6326165;28;20210;-64
2022/05/03 07:38:19;;;;;;;2.65;1.15;;;8.90;41.60;;;;;;6327272;28;20272;-67
2022/05/03 07:41:25;;;;;;;2.35;0.93;;;8.80;40.60;;;;;;6325641;28;20250;-66
2022/05/03 07:44:30;;;;;;;5.80;1.02;;;8.70;41.30;;;;;;6323320;28;20657;-64
2022/05/03 07:47:36;;;;;;;3.17;0.90;;;8.80;42.00;;;;;;6323553;28;20684;-65
2022/05/03 07:50:43;;;;;;;1.10;1.10;;;8.80;42.40;;;;;;6324168;28;20288;-66
2022/05/03 07:53:49;;;;;;;1.40;1.00;;;8.90;41.30;;;;;;6324762;28;20242;-65
2022/05/03 07:56:54;;;;;;;1.27;0.95;;;8.90;41.50;;;;;;6325172;28;20211;-66
2022/05/03 08:00:00;;;;;;;1.20;0.75;;;8.70;40.80;;;;;;6325046;28;20234;-66
2022/05/03 08:03:13;;;;;;;1.40;1.00;;;8.60;40.80;;;;;;6324262;28;20685;-66
2022/05/03 08:06:20;;;;;;;5.43;1.00;;;8.50;41.00;;;;;;6324047;28;20217;-66
2022/05/03 08:09:25;;;;;;;5.60;1.20;;;8.70;41.90;;;;;;6325488;28;20234;-66
2022/05/03 08:12:31;;;;;;;1.45;1.35;;;8.60;40.80;;;;;;6347946;28;20267;-66
2022/05/03 08:15:36;;;;;;;1.05;0.90;;;8.90;41.40;;;;;;6350360;28;20205;-65
2022/05/03 08:18:42;;;;;;;0.95;0.88;;;8.80;40.30;;;;;;6348526;28;20248;-66
2022/05/03 08:21:48;;;;;;;1.08;1.05;;;8.90;40.50;;;;;;6347391;28;20194;-65
2022/05/03 08:24:54;;;;;;;4.78;1.20;;;9.00;40.20;;;;;;6346844;28;20240;-65
2022/05/03 08:27:59;;;;;;;1.85;0.85;;;9.10;40.30;;;;;;6346939;28;20221;-66
2022/05/03 08:31:04;;;;;;;1.85;1.00;;;9.00;39.50;;;;;;6330278;28;20198;-65
2022/05/03 08:34:11;;;;;;;1.20;1.10;;;9.00;39.10;;;;;;6346722;28;20249;-66
2022/05/03 08:44:04;;;;;;;0.90;0.90;;;9.10;39.10;;;;;;6346115;28;20241;-65
2022/05/03 08:47:09;;;;;;;2.33;0.88;;;9.20;39.20;;;;;;6345699;28;20202;-65
2022/05/03 08:50:16;;;;;;;1.48;1.10;;;9.10;38.40;;;;;;6347165;28;20541;-66
2022/05/03 08:53:23;;;;;;;1.70;1.10;;;9.00;39.10;;;;;;6346821;28;20229;-65
2022/05/03 08:56:30;;;;;;;3.20;0.98;;;9.00;39.60;;;;;;6346916;28;20664;-66
2022/05/03 08:59:37;;;;;;;4.78;1.00;;;9.00;40.60;;;;;;6346088;28;20249;-65
2022/05/03 09:02:43;;;;;;;1.00;1.00;;;9.00;38.80;;;;;;6327848;28;20230;-66
2022/05/03 09:05:49;;;;;;;2.65;1.10;;;9.10;39.20;;;;;;6346594;28;20202;-65
2022/05/03 09:08:56;;;;;;;1.00;1.00;;;9.10;38.70;;;;;;6346303;28;20229;-64
2022/05/03 09:12:01;;;;;;;1.88;0.82;;;9.10;38.70;;;;;;6323760;28;20629;-66
2022/05/03 09:15:09;;;;;;;5.88;0.80;;;9.10;39.00;;;;;;6304761;28;20214;-65
2022/05/03 09:18:25;;;;;;;3.42;1.10;;;9.10;38.80;;;;;;6308446;28;20235;-65
2022/05/03 09:24:55;;;;;;;5.80;0.95;;;9.00;37.60;;;;;;6270463;28;20231;-65
2022/05/03 09:28:06;;;;;;;0.90;0.90;;;9.20;37.70;;;;;;6300943;28;20238;-65
2022/05/03 09:31:12;;;;;;;1.38;1.00;;;9.30;36.80;;;;;;6301570;28;20584;-65
2022/05/03 09:34:25;;;;;;;9.05;1.55;;;9.30;36.60;;;;;;6320388;28;20695;-66
2022/05/03 09:37:39;;;;;;;0.70;0.70;;;9.30;35.60;;;;;;6325404;28;20266;-66
2022/05/03 09:40:48;;;;;;;1.38;0.80;;;9.30;35.00;;;;;;6325793;28;20207;-65
2022/05/03 09:44:07;;;;;;;0.90;0.90;;;9.30;35.50;;;;;;6325274;28;20236;-67
2022/05/03 09:47:13;;;;;;;5.60;1.92;;;9.30;35.40;;;;;;6306990;28;20213;-67
2022/05/03 09:50:36;;;;;;;1.52;0.85;;;9.40;35.80;;;;;;6325587;28;20198;-66
2022/05/03 09:53:57;;;;;;;1.30;0.90;;;9.50;35.80;;;;;;6324982;28;20234;-65
2022/05/03 09:57:06;;;;;;;8.30;1.20;;;9.70;36.00;;;;;;6324438;28;20203;-66
2022/05/03 10:00:17;;;;;;;2.08;0.98;;;9.80;36.20;;;;;;6325141;28;20233;-65
2022/05/03 10:03:23;;;;;;;0.88;0.88;;;9.70;35.50;;;;;;6324812;28;20226;-65
2022/05/03 10:06:29;;;;;;;0.90;0.90;;;9.70;35.10;;;;;;6325067;28;20203;-65
2022/05/03 10:09:34;;;;;;;6.65;1.00;;;9.70;33.80;;;;;;6326905;28;20245;-66
2022/05/03 10:12:43;;;;;;;0.93;0.80;;;9.80;33.60;;;;;;6331921;28;20271;-66
2022/05/03 10:22:42;;;;;;;1.33;1.23;;;9.90;33.80;;;;;;6349534;28;20241;-65
2022/05/03 10:25:55;;;;;;;2.05;1.00;;;9.90;33.40;;;;;;6332215;28;20206;-66
2022/05/03 10:29:08;;;;;;;0.80;0.80;;;9.90;33.70;;;;;;6349760;28;20238;-66
2022/05/03 10:32:16;;;;;;;2.28;0.90;;;10.00;33.90;;;;;;6349902;28;20263;-65
2022/05/03 10:35:34;;;;;;;2.25;1.23;;;10.10;34.30;;;;;;6349837;28;20576;-65
2022/05/03 10:38:43;;;;;;;1.40;1.40;;;10.20;34.40;;;;;;6330724;28;20237;-66
2022/05/03 10:42:00;;;;;;;0.85;0.80;;;10.30;34.10;;;;;;6350072;28;20198;-66
2022/05/03 10:45:10;;;;;;;1.30;0.82;;;10.10;32.60;;;;;;6348723;28;20245;-65
2022/05/03 10:48:27;;;;;;;4.25;0.98;;;10.10;32.10;;;;;;6349827;28;20242;-65
2022/05/03 10:51:34;;;;;;;1.63;0.80;;;10.10;32.50;;;;;;6349905;28;20662;-66
2022/05/03 10:55:07;;;;;;;0.80;0.80;;;10.30;32.70;;;;;;6349027;28;20241;-65
2022/05/03 10:58:25;;;;;;;2.47;0.73;;;10.40;33.40;;;;;;6348831;28;20240;-66
2022/05/03 11:01:32;;;;;;;1.48;0.75;;;10.40;33.40;;;;;;6299255;28;20206;-65
2022/05/03 11:05:14;;;;;;;1.25;0.75;;;10.60;34.10;;;;;;6276042;28;20739;-66
2022/05/03 11:08:23;;;;;;;2.05;1.00;;;10.50;33.20;;;;;;6273914;28;20247;-66
2022/05/03 11:11:59;;;;;;;1.50;1.25;;;10.60;33.30;;;;;;6274261;28;20214;-66
2022/05/03 11:15:07;;;;;;;9.43;1.10;;;10.70;33.30;;;;;;6273081;28;20588;-66
2022/05/03 11:18:17;;;;;;;1.23;0.90;;;10.80;32.20;;;;;;6273584;28;20231;-67
2022/05/03 11:21:23;;;;;;;1.15;0.98;;;10.80;32.30;;;;;;6272908;28;20212;-66
2022/05/03 11:24:30;;;;;;;0.80;0.80;;;10.90;32.20;;;;;;6273556;28;20228;-66
2022/05/03 11:27:36;;;;;;;1.70;0.80;;;10.90;32.70;;;;;;6276043;28;20237;-66
2022/05/03 11:30:42;;;;;;;0.70;0.70;;;11.00;33.20;;;;;;6275331;28;20204;-64
2022/05/03 11:33:58;;;;;;;0.90;0.90;;;11.00;32.10;;;;;;6276906;28;20228;-65
2022/05/03 11:37:05;;;;;;;4.38;0.90;;;11.10;32.00;;;;;;6276759;28;20228;-65
2022/05/03 11:40:12;;;;;;;1.00;1.00;;;11.10;31.60;;;;;;6273862;28;20204;-66
2022/05/03 11:43:18;;;;;;;0.80;0.80;;;11.10;31.30;;;;;;6274955;28;20224;-65
2022/05/03 11:46:25;;;;;;;1.00;1.00;;;11.10;31.80;;;;;;6274982;28;20627;-65
2022/05/03 11:49:32;;;;;;;0.90;0.90;;;11.10;31.30;;;;;;6273999;28;20249;-65
2022/05/03 11:56:01;;;;;;;2.13;0.95;;;11.30;31.40;;;;;;6272550;28;20585;-65
2022/05/03 11:59:07;;;;;;;0.82;0.82;;;11.50;31.80;;;;;;6284853;28;20238;-66
2022/05/03 12:02:15;;;;;;;1.48;1.00;;;11.50;29.70;;;;;;6321665;28;20213;-65
2022/05/03 12:05:22;;;;;;;1.25;1.20;;;11.50;29.80;;;;;;6322725;28;20203;-66
2022/05/03 12:08:30;;;;;;;0.80;0.80;;;11.70;30.50;;;;;;6321296;28;20223;-67
2022/05/03 12:12:42;;;;;;;1.60;0.63;;;11.60;31.60;;;;;;6303182;28;20203;-65
2022/05/03 12:15:00;;;;;;;0.88;0.88;;;11.70;31.50;;;;;;6321416;28;20210;-66
2022/05/03 12:18:13;;;;;;;1.25;1.10;;;11.70;30.00;;;;;;6320376;28;20230;-66
2022/05/03 12:21:21;;;;;;;0.98;0.98;;;11.70;30.00;;;;;;6321881;28;20218;-65
2022/05/03 12:24:34;;;;;;;1.13;0.70;;;11.50;28.50;;;;;;6321788;28;20226;-65
2022/05/03 12:27:48;;;;;;;0.90;0.90;;;11.80;29.30;;;;;;6321557;28;20230;-65
2022/05/03 12:30:57;;;;;;;1.92;0.75;;;12.10;29.30;;;;;;6322006;28;20199;-66
2022/05/03 12:34:05;;;;;;;4.00;1.05;;;12.20;29.00;;;;;;6321519;28;20226;-65
2022/05/03 12:37:12;;;;;;;2.00;0.95;;;12.30;29.50;;;;;;6322416;28;20252;-65
2022/05/03 12:40:25;;;;;;;1.45;0.65;;;12.30;29.60;;;;;;6323725;28;20221;-65
2022/05/03 12:43:31;;;;;;;1.10;1.00;;;12.20;30.50;;;;;;6327896;28;20237;-64
2022/05/03 12:46:36;;;;;;;1.20;1.00;;;12.10;30.70;;;;;;6331507;28;20206;-65
2022/05/03 12:49:42;;;;;;;0.90;0.90;;;12.20;30.60;;;;;;6327050;28;20223;-66
2022/05/03 12:52:49;;;;;;;2.35;1.00;;;12.30;30.50;;;;;;6303624;28;20233;-65
2022/05/03 12:55:56;;;;;;;6.32;1.00;;;12.20;29.20;;;;;;6321910;28;20198;-66
2022/05/03 12:59:00;;;;;;;1.75;1.15;;;12.30;29.00;;;;;;6321038;28;20605;-66
2022/05/03 13:02:07;;;;;;;2.63;1.02;;;12.20;29.00;;;;;;6321135;28;20628;-65
2022/05/03 13:05:13;;;;;;;0.90;0.90;;;12.20;29.90;;;;;;6320786;28;20210;-67
2022/05/03 13:08:21;;;;;;;0.70;0.70;;;12.40;30.30;;;;;;6320999;28;20699;-67
2022/05/03 13:11:27;;;;;;;0.90;0.90;;;12.60;30.30;;;;;;6338349;28;20628;-66
2022/05/03 13:14:32;;;;;;;1.20;1.15;;;12.70;29.80;;;;;;6345812;28;20238;-65
2022/05/03 13:17:38;;;;;;;7.65;1.23;;;13.20;29.10;;;;;;6345535;28;20229;-67
2022/05/03 13:20:44;;;;;;;4.88;1.20;;;13.40;28.40;;;;;;6346653;28;20494;-66
2022/05/03 13:23:51;;;;;;;8.32;1.40;;;13.00;28.20;;;;;;6345931;28;20233;-67
2022/05/03 13:26:57;;;;;;;1.77;0.80;;;12.80;28.50;;;;;;6327376;28;20197;-66
2022/05/03 13:30:04;;;;;;;4.00;1.20;;;12.90;30.10;;;;;;6346803;28;20213;-65
2022/05/03 13:33:12;;;;;;;1.45;1.10;;;13.00;30.00;;;;;;6345700;28;20226;-66
2022/05/03 13:43:08;;;;;;;1.95;1.30;;;12.70;30.20;;;;;;6345719;28;20226;-68
2022/05/03 13:46:14;;;;;;;1.63;0.90;;;12.50;30.20;;;;;;6346406;28;20512;-66
2022/05/03 13:49:19;;;;;;;1.98;1.00;;;12.40;29.60;;;;;;6345926;28;20621;-66
2022/05/03 13:52:25;;;;;;;1.00;1.00;;;12.50;29.40;;;;;;6345208;28;20229;-66
2022/05/03 13:55:31;;;;;;;1.80;1.00;;;12.30;29.80;;;;;;6346192;28;20202;-66
2022/05/03 13:58:37;;;;;;;1.45;0.88;;;12.60;31.00;;;;;;6345003;28;20688;-65
2022/05/03 14:01:42;;;;;;;2.22;0.93;;;12.70;31.20;;;;;;6347308;28;20217;-67
2022/05/03 14:04:48;;;;;;;1.38;0.90;;;12.60;32.00;;;;;;6349885;28;20233;-65
2022/05/03 14:07:54;;;;;;;5.63;1.20;;;12.40;31.50;;;;;;6350520;28;20251;-67
2022/05/03 14:11:02;;;;;;;1.85;0.82;;;12.50;32.50;;;;;;6337083;28;20206;-66
2022/05/03 14:14:07;;;;;;;2.15;1.10;;;12.50;32.10;;;;;;6325008;28;20230;-67
2022/05/03 14:17:13;;;;;;;1.85;1.05;;;12.50;30.80;;;;;;6324978;28;20213;-66
2022/05/03 14:20:19;;;;;;;1.02;1.02;;;12.40;31.60;;;;;;6325565;28;20183;-67
2022/05/03 14:23:25;;;;;;;3.28;1.05;;;12.50;30.90;;;;;;6325354;28;20226;-66
2022/05/03 14:26:32;;;;;;;4.57;1.10;;;12.70;30.60;;;;;;6324976;28;20202;-67
2022/05/03 14:29:38;;;;;;;1.05;1.05;;;12.80;30.30;;;;;;6324700;28;20234;-68
2022/05/03 14:32:45;;;;;;;7.88;2.35;;;12.90;31.60;;;;;;6324131;28;20316;-66
2022/05/03 14:35:50;;;;;;;2.67;1.40;;;12.80;30.10;;;;;;6325018;28;20203;-66
2022/05/03 14:38:56;;;;;;;1.13;1.13;;;13.00;30.60;;;;;;6323933;28;20241;-66
2022/05/03 14:42:23;;;;;;;1.15;0.90;;;12.80;30.30;;;;;;6323904;28;20231;-66
2022/05/03 14:45:29;;;;;;;0.90;0.90;;;12.90;30.60;;;;;;6324331;28;20215;-67
2022/05/03 14:48:35;;;;;;;0.93;0.93;;;12.80;30.00;;;;;;6324087;28;20261;-67
2022/05/03 14:51:41;;;;;;;1.00;1.00;;;13.00;30.80;;;;;;6324644;28;20480;-66
2022/05/03 14:54:49;;;;;;;1.95;1.02;;;13.10;31.00;;;;;;6323912;28;20656;-67
2022/05/03 15:04:42;;;;;;;3.70;1.00;;;13.20;31.00;;;;;;6321964;28;20247;-66
2022/05/03 15:07:47;;;;;;;1.75;1.20;;;13.10;30.90;;;;;;6322974;28;20322;-66
2022/05/03 15:10:52;;;;;;;1.95;1.15;;;13.20;31.30;;;;;;6318163;28;20205;-67
2022/05/03 15:14:00;;;;;;;1.75;1.10;;;13.20;31.40;;;;;;6348100;28;20238;-66
2022/05/03 15:17:06;;;;;;;1.08;1.08;;;13.20;31.50;;;;;;6348323;28;20208;-67
2022/05/03 15:20:14;;;;;;;2.80;1.02;;;13.10;31.80;;;;;;6348737;28;20226;-66
2022/05/03 15:26:46;;;;;;;1.75;1.08;;;12.80;31.60;;;;;;6348205;28;20221;-66
2022/05/03 15:29:53;;;;;;;1.02;1.02;;;12.70;31.40;;;;;;6329216;28;20238;-66
2022/05/03 15:33:00;;;;;;;1.20;1.20;;;12.40;31.40;;;;;;6347578;28;20234;-66
2022/05/03 15:36:06;;;;;;;4.70;1.10;;;12.30;31.60;;;;;;6348888;28;20202;-67
2022/05/03 15:39:12;;;;;;;2.63;1.17;;;12.60;32.20;;;;;;6329957;28;20238;-66
2022/05/03 15:42:19;;;;;;;5.68;1.10;;;12.60;32.90;;;;;;6347753;28;20650;-65
2022/05/03 15:45:27;;;;;;;2.53;1.02;;;12.70;31.70;;;;;;6348495;28;20208;-66
2022/05/03 15:48:33;;;;;;;1.30;1.23;;;12.70;31.90;;;;;;6328757;28;20236;-66
2022/05/03 15:51:38;;;;;;;2.25;1.10;;;12.70;31.10;;;;;;6348897;28;20208;-66
2022/05/03 15:54:44;;;;;;;1.20;1.20;;;12.40;37.40;;;;;;6348007;28;20248;-66
2022/05/03 15:57:49;;;;;;;1.30;1.30;;;12.00;42.50;;;;;;6347794;28;20222;-67
2022/05/03 16:00:56;;;;;;;3.47;1.23;;;11.70;42.80;;;;;;6348160;28;20339;-68
2022/05/03 16:04:03;;;;;;;0.88;0.88;;;11.70;43.20;;;;;;6347223;28;20226;-66
2022/05/03 16:07:10;;;;;;;1.65;0.95;;;11.40;42.80;;;;;;6347274;28;20627;-65
2022/05/03 16:10:16;;;;;;;1.55;1.00;;;11.40;43.10;;;;;;6348443;28;20224;-66
2022/05/03 16:13:21;;;;;;;1.10;1.05;;;11.20;45.00;;;;;;6347492;28;20301;-66
2022/05/03 16:16:28;;;;;;;2.03;1.15;;;11.20;44.50;;;;;;6347763;28;20218;-65
2022/05/03 16:19:35;;;;;;;11.00;1.05;;;11.20;45.00;;;;;;6347391;28;20241;-66
2022/05/03 16:22:44;;;;;;;1.75;1.00;;;11.20;45.00;;;;;;6347229;28;20230;-66
2022/05/03 16:25:49;;;;;;;1.00;1.00;;;11.10;45.10;;;;;;6346380;28;20202;-66
2022/05/03 16:28:55;;;;;;;4.03;1.20;;;11.00;45.20;;;;;;6328381;28;20225;-66
2022/05/03 16:32:02;;;;;;;1.67;1.00;;;11.00;46.10;;;;;;6346838;28;20533;-67
2022/05/03 16:35:08;;;;;;;1.40;1.00;;;11.10;46.00;;;;;;6347581;28;20548;-67
2022/05/03 16:45:00;;;;;;;7.82;1.35;;;10.90;48.30;;;;;;6346501;28;20221;-65
2022/05/03 16:48:08;;;;;;;2.13;1.20;;;10.90;47.80;;;;;;6346549;28;20242;-64
2022/05/03 16:51:14;;;;;;;2.15;1.20;;;10.70;47.30;;;;;;6346877;28;20212;-65
2022/05/03 16:54:19;;;;;;;3.05;1.10;;;10.70;47.60;;;;;;6346387;28;20245;-66
2022/05/03 16:57:25;;;;;;;2.65;1.00;;;10.80;47.70;;;;;;6346439;28;20221;-64
2022/05/03 17:00:30;;;;;;;2.53;1.15;;;10.70;48.20;;;;;;6346482;28;20241;-65
2022/05/03 17:03:37;;;;;;;4.70;1.40;;;10.80;48.20;;;;;;6345870;28;20557;-65
2022/05/03 17:06:44;;;;;;;4.18;1.30;;;10.90;48.20;;;;;;6347288;28;20205;-66
2022/05/03 17:09:50;;;;;;;1.10;1.02;;;10.70;48.70;;;;;;6342223;28;20682;-65
2022/05/03 17:12:55;;;;;;;3.53;1.30;;;10.50;49.00;;;;;;6321027;28;20230;-67
2022/05/03 17:16:00;;;;;;;1.17;1.17;;;10.60;49.00;;;;;;6321261;28;20202;-66
2022/05/03 17:19:08;;;;;;;1.45;0.95;;;10.60;48.90;;;;;;6320278;28;20309;-66
2022/05/03 17:22:13;;;;;;;1.20;1.20;;;10.60;49.50;;;;;;6320886;28;20249;-66
2022/05/03 17:25:19;;;;;;;5.60;1.42;;;10.50;49.40;;;;;;6320919;28;20202;-65
2022/05/03 17:28:25;;;;;;;1.80;1.10;;;10.50;49.10;;;;;;6321063;28;20234;-65